Airfield :
LOGIN :

Register | Disclaimer

   EN    FR    IT 

 










Legend :    VFR   Marginal VFR   IFR   Intensive IFR   Very Intensive IFR
Visi :
Ceiling :
>= 8 km
>= 3000ft
5 to 8 km
1000 to 3000 ft
1500m to 5 km
500 to 1000 ft
800 to 1500m
200 to 500 ft
< 800m
< 200 ft
Symbols :   Thunderstorms  Fog  Heavy snow  Heavy precipitations  Wind > 20 kt
SIGMETs :     Misc.  Thunderstorms  Icing  Turbulence  Mountain Waves  Volcanic Ashes






- Airport Elevation : 82 ft
- IATA code : AAR


EKAH - Aarhus Tirstrup

CURRENT METAR :
  • 070250Z AUTO 17004KT 110V210 9999NDV BKN052/// 12/08 Q1001

EXPIRED METARs :
  • 070220Z AUTO 19005KT 130V240 9999NDV FEW039/// BKN049/// BKN066/// 12/08 Q1001
  • 070150Z AUTO 21004KT 140V270 9999NDV FEW027/// BKN054/// 12/07 Q1001
  • 070120Z AUTO 20005KT 150V260 9999NDV FEW033/// BKN064/// 12/07 Q1001
  • 070050Z AUTO 20006KT 130V250 9999NDV FEW026/// BKN061/// 12/07 Q1001
  • 070020Z AUTO 19005KT 150V250 9999NDV FEW030/// BKN048/// 11/07 Q1001
  • 062350Z AUTO 19003KT 9999NDV FEW030/// SCT047/// 11/07 Q1001

Expired Forecast.



MET'MAP, your aeronautical weather chart ! - Copyright ORBIFLY December 2007 - Disclaimer

ORBIFLY MET'MAP TEAM :

Programming & Development : Alexandra Zaïnal
Concept & original design : Baudouin d'Aumeries
Assistance for programming : Marc-Olivier Méhu
Technical & hardware support : Manuel Goepfert

Contact : metmap@orbifly.com




SOURCES & CREDITS :

   NOAA